createdAt,value
2019-03-20T00:01:17.191Z,71.57
2019-03-20T00:03:46.403Z,70.00
2019-03-20T00:06:15.916Z,60.90
2019-03-20T00:08:45.393Z,74.60
2019-03-20T00:11:14.532Z,68.67
2019-03-20T00:13:44.046Z,83.17
2019-03-20T00:16:13.576Z,76.03
2019-03-20T00:18:43.154Z,82.63
2019-03-20T00:21:12.345Z,78.27
2019-03-20T00:23:41.510Z,75.37
2019-03-20T00:26:11.282Z,73.10
2019-03-20T00:28:40.419Z,71.27
2019-03-20T00:31:09.579Z,81.63
2019-03-20T00:33:39.103Z,75.40
2019-03-20T00:36:08.681Z,68.13
2019-03-20T00:38:37.920Z,76.03
2019-03-20T00:41:07.084Z,66.50
2019-03-20T00:43:38.358Z,80.00
2019-03-20T00:46:07.510Z,76.63
2019-03-20T00:48:37.020Z,85.00
2019-03-20T00:51:06.183Z,85.33
2019-03-20T00:53:35.741Z,75.60
2019-03-20T00:56:05.288Z,77.63
2019-03-20T00:58:34.446Z,84.80
2019-03-20T01:01:03.646Z,75.50
2019-03-20T01:03:33.158Z,84.47
2019-03-20T01:06:04.369Z,80.87
2019-03-20T01:08:33.957Z,73.50
2019-03-20T01:11:03.545Z,78.80
2019-03-20T01:13:32.764Z,70.77
2019-03-20T01:16:02.295Z,85.53
2019-03-20T01:18:31.905Z,82.10
2019-03-20T01:21:01.415Z,87.17
2019-03-20T01:23:30.616Z,92.70
2019-03-20T01:25:59.823Z,80.10
2019-03-20T01:28:29.336Z,72.63
2019-03-20T01:30:58.973Z,83.40
2019-03-20T01:33:28.311Z,77.13
2019-03-20T01:35:58.181Z,76.67
2019-03-20T01:38:28.408Z,96.40
2019-03-20T01:40:58.187Z,82.05
2019-03-20T01:43:28.045Z,94.77
2019-03-20T01:45:57.211Z,78.23
2019-03-20T01:48:26.382Z,90.93
2019-03-20T01:50:55.576Z,86.03
2019-03-20T01:53:26.288Z,80.13
2019-03-20T01:55:55.409Z,82.37
2019-03-20T01:58:24.627Z,79.13
2019-03-20T02:00:54.145Z,94.60
2019-03-20T02:03:23.334Z,79.97
2019-03-20T02:05:52.494Z,86.30
2019-03-20T02:08:23.594Z,96.13
2019-03-20T02:10:53.260Z,87.53
2019-03-20T02:13:22.439Z,91.93
2019-03-20T02:15:51.646Z,83.97
2019-03-20T02:18:21.636Z,97.93
2019-03-20T02:20:51.308Z,103.70
2019-03-20T02:23:20.856Z,89.47
2019-03-20T02:25:50.066Z,87.10
2019-03-20T02:28:19.199Z,94.00
2019-03-20T02:30:48.421Z,86.57
2019-03-20T02:33:17.607Z,86.77
2019-03-20T02:35:51.811Z,88.23
2019-03-20T02:38:18.483Z,80.87
2019-03-20T02:40:48.019Z,90.23
2019-03-20T02:43:17.218Z,89.33
2019-03-20T02:45:46.667Z,95.87
2019-03-20T02:48:15.867Z,87.87
2019-03-20T02:50:44.994Z,86.47
2019-03-20T02:53:14.629Z,86.10
2019-03-20T02:55:43.790Z,94.67
2019-03-20T02:58:13.055Z,88.53
2019-03-20T03:00:42.577Z,86.60
2019-03-20T03:03:12.516Z,81.20
2019-03-20T03:05:41.698Z,93.03
2019-03-20T03:08:11.215Z,82.07
2019-03-20T03:10:40.746Z,82.10
2019-03-20T03:13:10.097Z,77.83
2019-03-20T03:15:39.242Z,80.13
2019-03-20T03:18:08.720Z,77.73
2019-03-20T03:20:39.717Z,72.10
2019-03-20T03:23:08.959Z,101.50
2019-03-20T03:25:38.301Z,76.40
2019-03-20T03:28:07.448Z,81.27
2019-03-20T03:30:36.882Z,80.13
2019-03-20T03:33:06.104Z,103.03
2019-03-20T03:35:35.275Z,81.43
2019-03-20T03:38:05.193Z,79.40
2019-03-20T03:40:34.380Z,78.97
2019-03-20T03:43:03.560Z,79.50
2019-03-20T03:45:32.802Z,81.57
2019-03-20T03:48:02.012Z,104.60
2019-03-20T03:50:31.357Z,84.13
2019-03-20T03:53:00.510Z,87.23
2019-03-20T03:55:30.003Z,78.67
2019-03-20T03:57:59.204Z,97.47
2019-03-20T04:00:28.731Z,104.77
2019-03-20T04:02:58.063Z,91.33
2019-03-20T04:05:27.519Z,97.33
2019-03-20T04:07:56.657Z,96.10
2019-03-20T04:10:26.625Z,90.17
2019-03-20T04:12:55.791Z,79.70
2019-03-20T04:15:25.237Z,85.23
2019-03-20T04:17:54.443Z,97.00
2019-03-20T04:20:23.967Z,101.97
2019-03-20T04:22:53.099Z,91.73
2019-03-20T04:25:24.183Z,94.03
2019-03-20T04:27:53.348Z,100.27
2019-03-20T04:30:22.560Z,96.60
2019-03-20T04:32:51.822Z,101.77
2019-03-20T04:35:20.965Z,84.17
2019-03-20T04:37:50.463Z,95.93
2019-03-20T04:40:19.717Z,82.87
2019-03-20T04:42:48.967Z,86.10
2019-03-20T04:45:18.213Z,92.17
2019-03-20T04:47:47.685Z,88.53
2019-03-20T04:50:17.149Z,79.07
2019-03-20T04:52:46.291Z,87.30
2019-03-20T04:55:17.434Z,86.73
2019-03-20T04:57:46.648Z,83.47
2019-03-20T05:00:16.138Z,80.17
2019-03-20T05:02:45.979Z,72.07
2019-03-20T05:05:15.565Z,76.43
2019-03-20T05:07:44.714Z,80.90
2019-03-20T05:10:14.467Z,73.83
2019-03-20T05:12:43.810Z,76.80
2019-03-20T05:15:13.464Z,69.97
2019-03-20T05:17:43.062Z,69.10
2019-03-20T05:20:12.986Z,72.67
2019-03-20T05:22:42.094Z,74.13
2019-03-20T05:25:11.317Z,70.50
2019-03-20T05:27:40.498Z,75.60
2019-03-20T05:30:13.704Z,78.67
2019-03-20T05:32:42.900Z,69.00
2019-03-20T05:35:12.225Z,64.27
2019-03-20T05:37:43.252Z,62.10
2019-03-20T05:40:13.190Z,70.30
2019-03-20T05:42:42.970Z,73.47
2019-03-20T05:45:13.232Z,75.07
2019-03-20T05:47:44.234Z,61.57
2019-03-20T05:50:14.167Z,77.60
2019-03-20T05:52:43.335Z,66.63
2019-03-20T05:55:12.709Z,67.93
2019-03-20T05:57:41.904Z,68.83
2019-03-20T06:00:13.267Z,68.93
2019-03-20T06:02:43.106Z,67.50
2019-03-20T06:05:12.880Z,67.83
2019-03-20T06:07:42.025Z,65.03
2019-03-20T06:10:12.319Z,69.87
2019-03-20T06:12:41.543Z,62.37
2019-03-20T06:15:11.042Z,60.70
2019-03-20T06:17:40.556Z,61.23
2019-03-20T06:20:09.959Z,65.40
2019-03-20T06:22:39.140Z,62.70
2019-03-20T06:25:09.022Z,63.38
2019-03-20T06:27:38.219Z,57.13
2019-03-20T06:30:10.630Z,61.33
2019-03-20T06:32:40.184Z,56.97
2019-03-20T06:35:09.398Z,67.20
2019-03-20T06:37:38.634Z,65.90
2019-03-20T06:40:10.703Z,49.20
2019-03-20T06:42:39.810Z,76.93
2019-03-20T06:45:10.295Z,56.00
2019-03-20T06:47:40.493Z,61.23
2019-03-20T06:50:12.142Z,53.40
2019-03-20T06:52:41.311Z,56.17
2019-03-20T06:55:10.854Z,62.23
2019-03-20T06:57:41.143Z,50.83
2019-03-20T07:00:54.594Z,51.77
2019-03-20T07:04:17.448Z,53.97
2019-03-20T07:07:11.369Z,56.13
2019-03-20T07:09:45.486Z,53.00
2019-03-20T07:12:14.675Z,50.92
2019-03-20T07:14:43.897Z,61.90
2019-03-20T07:17:14.672Z,50.50
2019-03-20T07:19:44.497Z,51.33
2019-03-20T07:22:14.032Z,51.73
2019-03-20T07:24:43.838Z,51.27
2019-03-20T07:27:13.153Z,48.37
2019-03-20T07:29:42.347Z,46.77
2019-03-20T07:32:11.485Z,52.23
2019-03-20T07:34:40.667Z,58.27
2019-03-20T07:37:10.537Z,49.90
2019-03-20T07:39:40.074Z,56.77
2019-03-20T07:42:09.661Z,57.13
2019-03-20T07:44:39.091Z,50.17
2019-03-20T07:47:08.302Z,57.00
2019-03-20T07:49:37.876Z,44.70
2019-03-20T07:52:07.112Z,51.00
2019-03-20T07:54:36.637Z,48.87
2019-03-20T07:57:05.787Z,54.47
2019-03-20T07:59:35.043Z,53.93
2019-03-20T08:02:04.570Z,51.70
2019-03-20T08:04:33.759Z,54.13
2019-03-20T08:07:03.411Z,51.10
2019-03-20T08:09:32.703Z,60.53
2019-03-20T08:12:01.897Z,47.90
2019-03-20T08:14:31.807Z,53.20
2019-03-20T08:17:01.016Z,52.03
2019-03-20T08:19:30.176Z,49.30
2019-03-20T08:21:59.400Z,65.33
2019-03-20T08:24:28.597Z,49.60
2019-03-20T08:26:57.809Z,52.00
2019-03-20T08:29:27.293Z,56.90
2019-03-20T08:31:56.468Z,49.87
2019-03-20T08:34:25.865Z,53.50
2019-03-20T08:36:55.059Z,56.97
2019-03-20T08:39:24.629Z,59.77
2019-03-20T08:41:53.858Z,54.10
2019-03-20T08:44:23.005Z,51.37
2019-03-20T08:46:52.221Z,51.10
2019-03-20T08:49:21.361Z,55.70
2019-03-20T08:51:50.547Z,53.53
2019-03-20T08:54:19.796Z,58.50
2019-03-20T08:56:49.289Z,54.23
2019-03-20T08:59:18.921Z,65.13
2019-03-20T09:01:48.095Z,55.30
2019-03-20T09:04:17.572Z,48.00
2019-03-20T09:06:46.773Z,55.90
2019-03-20T09:09:15.931Z,58.10
2019-03-20T09:11:45.825Z,53.43
2019-03-20T09:14:15.353Z,51.10
2019-03-20T09:16:44.882Z,57.77
2019-03-20T09:19:15.113Z,57.27
2019-03-20T09:21:44.301Z,43.70
2019-03-20T09:24:13.462Z,54.37
2019-03-20T09:26:42.705Z,51.63
2019-03-20T09:29:18.521Z,54.87
2019-03-20T09:31:43.311Z,45.67
2019-03-20T09:34:12.503Z,54.00
2019-03-20T09:36:43.397Z,53.40
2019-03-20T09:39:12.827Z,48.30
2019-03-20T09:41:42.044Z,54.43
2019-03-20T09:44:11.582Z,46.93
2019-03-20T09:46:40.976Z,55.00
2019-03-20T09:49:10.431Z,46.13
2019-03-20T09:51:39.620Z,47.63
2019-03-20T09:54:09.274Z,46.80
2019-03-20T09:56:38.457Z,46.50
2019-03-20T09:59:07.698Z,50.50
2019-03-20T10:01:36.925Z,47.23
2019-03-20T10:04:06.284Z,45.33
2019-03-20T10:06:35.807Z,55.57
2019-03-20T10:09:07.872Z,52.03
2019-03-20T10:11:37.594Z,42.47
2019-03-20T10:14:06.792Z,46.60
2019-03-20T10:16:35.954Z,43.40
2019-03-20T10:19:06.029Z,60.23
2019-03-20T10:21:35.614Z,44.80
2019-03-20T10:24:04.853Z,45.57
2019-03-20T10:26:34.489Z,42.17
2019-03-20T10:29:03.860Z,45.83
2019-03-20T10:31:33.522Z,56.30
2019-03-20T10:34:02.679Z,49.47
2019-03-20T10:36:31.877Z,47.43
2019-03-20T10:39:06.279Z,51.03
2019-03-20T10:41:33.842Z,51.60
2019-03-20T10:44:03.034Z,55.27
2019-03-20T10:46:32.246Z,56.33
2019-03-20T10:49:01.430Z,57.13
2019-03-20T10:51:30.982Z,49.47
2019-03-20T10:54:01.293Z,57.30
2019-03-20T10:56:30.617Z,54.43
2019-03-20T10:58:59.827Z,63.03
2019-03-20T11:01:29.029Z,65.40
2019-03-20T11:03:58.584Z,59.90
2019-03-20T11:06:27.725Z,62.33
2019-03-20T11:08:56.958Z,55.27
2019-03-20T11:11:27.389Z,59.10
2019-03-20T11:13:57.184Z,50.77
2019-03-20T11:16:26.642Z,53.67
2019-03-20T11:18:57.446Z,58.13
2019-03-20T11:21:26.852Z,50.90
2019-03-20T11:23:56.046Z,52.43
2019-03-20T11:26:25.830Z,52.87
2019-03-20T11:28:55.008Z,59.37
2019-03-20T11:31:24.523Z,60.37
2019-03-20T11:33:55.782Z,54.13
2019-03-20T11:36:25.047Z,59.73
2019-03-20T11:38:54.729Z,56.63
2019-03-20T11:41:23.901Z,58.67
2019-03-20T11:43:53.097Z,61.87
2019-03-20T11:46:24.577Z,56.27
2019-03-20T11:48:53.810Z,58.07
2019-03-20T11:51:23.036Z,55.40
2019-03-20T11:53:52.912Z,55.03
2019-03-20T11:56:22.453Z,59.03
2019-03-20T11:58:51.889Z,52.40
2019-03-20T12:01:21.077Z,58.57
2019-03-20T12:03:50.225Z,53.63
2019-03-20T12:06:19.381Z,58.67
2019-03-20T12:08:48.605Z,59.20
2019-03-20T12:11:18.249Z,55.70
2019-03-20T12:13:48.178Z,56.13
2019-03-20T12:16:17.336Z,65.70
2019-03-20T12:18:46.541Z,75.57
2019-03-20T12:21:16.066Z,61.00
2019-03-20T12:23:45.220Z,58.37
2019-03-20T12:26:14.891Z,70.90
2019-03-20T12:28:44.063Z,70.80
2019-03-20T12:31:13.291Z,63.50
2019-03-20T12:33:42.513Z,72.33
2019-03-20T12:36:12.401Z,67.07
2019-03-20T12:38:41.619Z,76.40
2019-03-20T12:41:10.912Z,71.80
2019-03-20T12:43:40.087Z,73.07
2019-03-20T12:46:09.613Z,75.63
2019-03-20T12:48:38.828Z,80.27
2019-03-20T12:51:07.981Z,74.23
2019-03-20T12:53:37.151Z,82.30
2019-03-20T12:56:06.761Z,78.50
2019-03-20T12:58:35.921Z,81.43
2019-03-20T13:01:05.318Z,76.13
2019-03-20T13:03:34.982Z,84.80
2019-03-20T13:06:04.203Z,86.63
2019-03-20T13:08:33.372Z,77.27
2019-03-20T13:11:02.961Z,87.30
2019-03-20T13:13:32.550Z,81.47
2019-03-20T13:16:02.174Z,80.13
2019-03-20T13:18:31.390Z,90.07
2019-03-20T13:21:00.819Z,86.50
2019-03-20T13:23:32.275Z,83.20
2019-03-20T13:26:03.367Z,83.43
2019-03-20T13:28:32.508Z,91.47
2019-03-20T13:31:05.089Z,95.60
2019-03-20T13:33:34.611Z,89.93
2019-03-20T13:36:03.808Z,88.93
2019-03-20T13:38:33.114Z,89.53
2019-03-20T13:41:02.328Z,91.33
2019-03-20T13:43:31.647Z,93.97
2019-03-20T13:46:00.846Z,94.20
2019-03-20T13:48:30.048Z,102.43
2019-03-20T13:50:59.547Z,93.03
2019-03-20T13:53:29.029Z,86.97
2019-03-20T13:55:58.239Z,85.07
2019-03-20T13:58:27.466Z,81.60
2019-03-20T14:00:57.468Z,90.63
2019-03-20T14:03:26.609Z,86.77
2019-03-20T14:05:55.778Z,85.13
2019-03-20T14:08:24.976Z,84.50
2019-03-20T14:10:54.176Z,82.20
2019-03-20T14:13:23.494Z,85.20
2019-03-20T14:15:52.636Z,84.73
2019-03-20T14:18:21.820Z,95.67
2019-03-20T14:20:51.295Z,84.50
2019-03-20T14:23:20.483Z,82.63
2019-03-20T14:25:49.699Z,93.80
2019-03-20T14:28:19.261Z,86.47
2019-03-20T14:30:49.327Z,89.17
2019-03-20T14:33:18.787Z,91.83
2019-03-20T14:35:48.050Z,89.13
2019-03-20T14:38:17.240Z,99.93
2019-03-20T14:40:46.457Z,95.40
2019-03-20T14:43:15.677Z,97.57
2019-03-20T14:45:44.875Z,85.10
2019-03-20T14:48:14.146Z,93.60
2019-03-20T14:50:44.543Z,91.37
2019-03-20T14:53:14.018Z,86.63
2019-03-20T14:55:43.560Z,91.73
2019-03-20T14:58:12.711Z,87.83
2019-03-20T15:00:42.238Z,87.50
2019-03-20T15:03:11.851Z,90.27
2019-03-20T15:05:41.077Z,86.87
2019-03-20T15:08:10.213Z,77.87
2019-03-20T15:10:46.000Z,76.50
2019-03-20T15:13:10.684Z,79.17
2019-03-20T15:15:46.332Z,77.10
2019-03-20T15:18:15.843Z,80.33
2019-03-20T15:20:45.011Z,78.30
2019-03-20T15:23:14.344Z,83.87
2019-03-20T15:25:43.989Z,78.17
2019-03-20T15:28:13.194Z,89.80
2019-03-20T15:30:42.376Z,94.67
2019-03-20T15:33:11.859Z,89.60
2019-03-20T15:35:41.147Z,88.77
2019-03-20T15:38:10.565Z,80.87
2019-03-20T15:40:40.136Z,83.30
2019-03-20T15:43:09.552Z,96.07
2019-03-20T15:45:38.743Z,83.20
2019-03-20T15:48:08.254Z,78.23
2019-03-20T15:50:37.398Z,88.30
2019-03-20T15:53:06.890Z,102.30
2019-03-20T15:55:36.390Z,98.23
2019-03-20T15:58:05.906Z,84.77
2019-03-20T16:00:35.058Z,91.37
2019-03-20T16:03:07.326Z,101.73
2019-03-20T16:05:36.736Z,79.53
2019-03-20T16:08:06.209Z,78.77
2019-03-20T16:10:35.687Z,94.27
2019-03-20T16:13:05.393Z,85.47
2019-03-20T16:15:36.348Z,85.30
2019-03-20T16:18:06.970Z,85.73
2019-03-20T16:20:36.380Z,94.57
2019-03-20T16:23:06.139Z,94.10
2019-03-20T16:25:35.491Z,79.57
2019-03-20T16:28:04.812Z,88.33
2019-03-20T16:30:33.982Z,80.67
2019-03-20T16:33:03.485Z,91.40
2019-03-20T16:35:33.138Z,97.30
2019-03-20T16:38:02.336Z,96.03
2019-03-20T16:40:31.552Z,91.57
2019-03-20T16:43:01.070Z,86.10
2019-03-20T16:45:31.081Z,88.53
2019-03-20T16:48:00.565Z,83.93
2019-03-20T16:50:29.774Z,83.50
2019-03-20T16:52:59.292Z,102.20
2019-03-20T16:55:28.457Z,82.80
2019-03-20T16:57:58.051Z,95.30
2019-03-20T17:00:28.175Z,93.50
2019-03-20T17:02:57.755Z,94.23
2019-03-20T17:05:27.508Z,85.43
2019-03-20T17:07:58.411Z,82.57
2019-03-20T17:10:32.940Z,83.83
2019-03-20T17:13:02.274Z,79.53
2019-03-20T17:15:31.717Z,75.17
2019-03-20T17:18:01.181Z,89.83
2019-03-20T17:20:31.109Z,83.73
2019-03-20T17:23:00.297Z,77.57
2019-03-20T17:25:30.088Z,80.37
2019-03-20T17:27:59.273Z,73.83
2019-03-20T17:30:30.665Z,67.33
2019-03-20T17:33:00.213Z,80.17
2019-03-20T17:35:29.516Z,77.63
2019-03-20T17:38:01.630Z,84.37
2019-03-20T17:40:31.362Z,80.97
2019-03-20T17:43:00.885Z,81.30
2019-03-20T17:45:31.205Z,73.37
2019-03-20T17:48:00.945Z,86.47
2019-03-20T17:50:30.251Z,83.50
2019-03-20T17:52:59.639Z,89.70
2019-03-20T17:55:28.886Z,91.17
2019-03-20T17:57:58.602Z,85.47
2019-03-20T18:00:48.168Z,81.27
2019-03-20T18:03:17.431Z,94.33
2019-03-20T18:05:46.975Z,83.20
2019-03-20T18:08:16.251Z,79.13
2019-03-20T18:10:45.457Z,77.70
2019-03-20T18:13:16.100Z,73.07
2019-03-20T18:15:45.684Z,81.67
2019-03-20T18:18:15.540Z,87.13
2019-03-20T18:20:44.678Z,88.47
2019-03-20T18:23:14.491Z,87.47
2019-03-20T18:25:43.797Z,77.40
2019-03-20T18:28:13.056Z,89.73
2019-03-20T18:30:43.386Z,87.13
2019-03-20T18:33:13.332Z,92.27
2019-03-20T18:35:42.531Z,105.33
2019-03-20T18:38:11.985Z,101.23
2019-03-20T18:40:41.405Z,96.30
2019-03-20T18:43:10.766Z,94.93
2019-03-20T18:45:39.972Z,110.93
2019-03-20T18:48:09.488Z,87.90
2019-03-20T18:50:38.655Z,80.90
2019-03-20T18:53:08.514Z,96.03
2019-03-20T18:55:37.655Z,91.03
2019-03-20T18:58:07.849Z,93.10
2019-03-20T19:00:37.341Z,93.13
2019-03-20T19:03:10.746Z,102.17
2019-03-20T19:05:52.935Z,93.07
2019-03-20T19:08:22.205Z,88.07
2019-03-20T19:10:51.428Z,85.40
2019-03-20T19:13:21.029Z,79.13
2019-03-20T19:15:50.671Z,81.50
2019-03-20T19:18:20.406Z,93.17
2019-03-20T19:20:49.667Z,79.73
2019-03-20T19:23:20.419Z,83.47
2019-03-20T19:25:49.828Z,92.30
2019-03-20T19:28:19.006Z,88.50
2019-03-20T19:30:48.161Z,97.13
2019-03-20T19:33:18.113Z,78.23
2019-03-20T19:35:47.345Z,77.60
2019-03-20T19:38:17.332Z,83.63
2019-03-20T19:40:46.623Z,94.90
2019-03-20T19:43:15.774Z,82.63
2019-03-20T19:45:45.245Z,84.90
2019-03-20T19:48:14.436Z,83.03
2019-03-20T19:50:44.788Z,80.53
2019-03-20T19:53:13.941Z,82.47
2019-03-20T19:55:43.154Z,76.63
2019-03-20T19:58:12.416Z,86.53
2019-03-20T20:00:41.559Z,71.53
2019-03-20T20:03:10.757Z,80.43
2019-03-20T20:05:39.945Z,73.83
2019-03-20T20:08:09.490Z,86.63
2019-03-20T20:10:38.642Z,96.60
2019-03-20T20:13:07.851Z,84.47
2019-03-20T20:15:37.061Z,81.47
2019-03-20T20:18:06.812Z,91.57
2019-03-20T20:20:36.630Z,92.90
2019-03-20T20:23:05.991Z,83.77
2019-03-20T20:25:35.608Z,82.30
2019-03-20T20:28:04.871Z,81.80
2019-03-20T20:30:34.118Z,83.97
2019-03-20T20:33:03.283Z,89.13
2019-03-20T20:35:32.440Z,90.20
2019-03-20T20:38:01.951Z,94.87
2019-03-20T20:40:31.535Z,90.90
2019-03-20T20:43:00.796Z,91.93
2019-03-20T20:45:30.337Z,97.33
2019-03-20T20:47:59.931Z,85.77
2019-03-20T20:50:29.442Z,99.73
2019-03-20T20:52:59.046Z,105.53
2019-03-20T20:55:29.603Z,102.50
2019-03-20T20:57:59.287Z,102.20
2019-03-20T21:00:28.838Z,88.60
2019-03-20T21:02:58.409Z,87.33
2019-03-20T21:05:27.682Z,88.57
2019-03-20T21:07:57.290Z,102.40
2019-03-20T21:10:26.511Z,109.70
2019-03-20T21:12:57.345Z,115.43
2019-03-20T21:15:41.126Z,106.43
2019-03-20T21:18:57.692Z,104.80
2019-03-20T21:22:20.265Z,104.90
2019-03-20T21:24:50.268Z,100.37
2019-03-20T21:28:03.928Z,96.43
2019-03-20T21:31:12.871Z,107.50
2019-03-20T21:34:29.338Z,98.80
2019-03-20T21:37:34.707Z,102.83
2019-03-20T21:40:05.398Z,105.00
2019-03-20T21:43:10.608Z,109.00
2019-03-20T21:46:24.405Z,113.40
2019-03-20T21:48:54.166Z,115.07
2019-03-20T21:51:24.228Z,105.53
2019-03-20T21:54:38.440Z,104.50
2019-03-20T21:57:54.826Z,100.67
2019-03-20T22:01:26.636Z,111.77
2019-03-20T22:03:56.379Z,109.13
2019-03-20T22:07:13.136Z,109.60
2019-03-20T22:10:32.315Z,120.67
2019-03-20T22:13:47.404Z,116.77
2019-03-20T22:17:28.107Z,114.63
2019-03-20T22:20:25.078Z,107.77
2019-03-20T22:23:18.871Z,113.93
2019-03-20T22:26:35.367Z,110.93
2019-03-20T22:29:22.077Z,104.77
2019-03-20T22:32:40.736Z,116.13
2019-03-20T22:35:52.705Z,107.27
2019-03-20T22:39:06.075Z,114.33
2019-03-20T22:42:20.054Z,118.90
2019-03-20T22:45:02.597Z,98.67
2019-03-20T22:48:31.639Z,108.70
2019-03-20T22:51:30.989Z,98.20
2019-03-20T22:54:36.242Z,115.80
2019-03-20T22:57:40.217Z,110.37
2019-03-20T23:00:09.983Z,100.27
2019-03-20T23:02:46.166Z,90.87
2019-03-20T23:05:16.218Z,104.47
2019-03-20T23:07:45.943Z,106.53
2019-03-20T23:10:16.465Z,91.77
2019-03-20T23:12:46.211Z,100.87
2019-03-20T23:15:17.377Z,108.50
2019-03-20T23:17:47.415Z,107.53
2019-03-20T23:20:20.091Z,102.23
2019-03-20T23:22:49.958Z,110.07
2019-03-20T23:25:19.677Z,108.70
2019-03-20T23:27:49.811Z,96.87
2019-03-20T23:30:22.227Z,100.90
2019-03-20T23:32:52.115Z,107.27
2019-03-20T23:35:21.820Z,109.37
2019-03-20T23:37:51.538Z,109.93
2019-03-20T23:40:21.268Z,111.07
2019-03-20T23:42:51.593Z,112.20
2019-03-20T23:45:21.327Z,106.33
2019-03-20T23:48:31.580Z,113.17
2019-03-20T23:51:05.161Z,126.20
2019-03-20T23:53:35.414Z,141.37
2019-03-20T23:56:05.653Z,118.67
2019-03-20T23:58:35.352Z,131.17
